createdAt,value
2022-11-03T00:01:53.130Z,14.04
2022-11-03T00:04:21.556Z,14.19
2022-11-03T00:06:51.207Z,14.04
2022-11-03T00:09:20.212Z,14.42
2022-11-03T00:11:48.687Z,13.95
2022-11-03T00:14:15.487Z,14.43
2022-11-03T00:16:43.164Z,13.94
2022-11-03T00:19:11.484Z,14.08
2022-11-03T00:21:38.746Z,13.86
2022-11-03T00:24:05.842Z,14.16
2022-11-03T00:26:34.533Z,14.08
2022-11-03T00:29:06.458Z,13.36
2022-11-03T00:31:35.248Z,13.52
2022-11-03T00:34:03.166Z,13.49
2022-11-03T00:36:34.256Z,13.69
2022-11-03T00:39:01.886Z,13.02
2022-11-03T00:41:28.771Z,13.60
2022-11-03T00:43:57.199Z,13.48
2022-11-03T00:46:25.806Z,13.33
2022-11-03T00:48:52.825Z,13.71
2022-11-03T00:51:24.886Z,12.86
2022-11-03T00:53:52.874Z,12.83
2022-11-03T00:56:22.382Z,13.46
2022-11-03T00:58:50.343Z,13.14
2022-11-03T01:01:23.767Z,13.43
2022-11-03T01:04:11.617Z,13.50
2022-11-03T01:06:50.945Z,13.23
2022-11-03T01:09:34.206Z,13.74
2022-11-03T01:12:04.668Z,12.98
2022-11-03T01:14:46.242Z,13.66
2022-11-03T01:17:22.687Z,13.67
2022-11-03T01:19:50.641Z,13.76
2022-11-03T01:22:18.459Z,13.83
2022-11-03T01:24:45.787Z,13.53
2022-11-03T01:27:15.692Z,13.87
2022-11-03T01:29:43.151Z,13.25
2022-11-03T01:32:10.640Z,13.52
2022-11-03T01:34:37.936Z,13.52
2022-11-03T01:37:05.420Z,13.39
2022-11-03T01:39:32.219Z,12.56
2022-11-03T01:41:59.021Z,12.88
2022-11-03T01:44:29.833Z,13.41
2022-11-03T01:47:22.705Z,13.46
2022-11-03T01:50:02.902Z,13.79
2022-11-03T01:52:39.628Z,13.68
2022-11-03T01:55:14.482Z,14.56
2022-11-03T01:57:54.291Z,14.31
2022-11-03T02:00:21.843Z,12.96
2022-11-03T02:02:49.974Z,13.60
2022-11-03T02:05:20.093Z,13.82
2022-11-03T02:07:56.768Z,13.24
2022-11-03T02:10:24.826Z,13.08
2022-11-03T02:12:52.278Z,13.80
2022-11-03T02:15:24.069Z,13.73
2022-11-03T02:17:54.070Z,13.55
2022-11-03T02:20:24.275Z,13.47
2022-11-03T02:23:26.754Z,14.13
2022-11-03T02:25:57.300Z,13.06
2022-11-03T02:28:30.373Z,12.90
2022-11-03T02:31:10.520Z,13.23
2022-11-03T02:34:13.358Z,13.47
2022-11-03T02:36:51.641Z,13.46
2022-11-03T02:39:38.720Z,13.41
2022-11-03T02:42:08.340Z,13.66
2022-11-03T02:44:37.028Z,14.01
2022-11-03T02:47:08.236Z,14.08
2022-11-03T02:49:46.969Z,13.74
2022-11-03T02:52:46.760Z,13.77
2022-11-03T02:55:29.686Z,13.55
2022-11-03T02:58:07.442Z,13.62
2022-11-03T03:00:45.185Z,13.41
2022-11-03T03:03:22.462Z,13.35
2022-11-03T03:05:52.757Z,13.30
2022-11-03T03:08:23.207Z,13.30
2022-11-03T03:10:51.907Z,13.28
2022-11-03T03:13:22.575Z,13.60
2022-11-03T03:15:55.288Z,13.39
2022-11-03T03:18:36.635Z,13.24
2022-11-03T03:21:12.001Z,13.40
2022-11-03T03:23:49.675Z,12.53
2022-11-03T03:26:31.257Z,12.51
2022-11-03T03:29:03.213Z,13.29
2022-11-03T03:31:36.320Z,12.33
2022-11-03T03:34:16.589Z,12.29
2022-11-03T03:36:52.365Z,13.19
2022-11-03T03:39:21.590Z,12.77
2022-11-03T03:41:48.736Z,13.00
2022-11-03T03:44:17.512Z,12.83
2022-11-03T03:46:56.900Z,13.03
2022-11-03T03:49:23.645Z,13.14
2022-11-03T03:51:51.548Z,13.14
2022-11-03T03:54:18.314Z,13.02
2022-11-03T03:57:15.744Z,13.10
2022-11-03T03:59:45.864Z,11.52
2022-11-03T04:02:13.511Z,11.71
2022-11-03T04:04:40.692Z,11.55
2022-11-03T04:07:26.431Z,11.73
2022-11-03T04:09:53.318Z,11.65
2022-11-03T04:12:38.661Z,12.69
2022-11-03T04:15:24.849Z,13.38
2022-11-03T04:18:14.671Z,13.35
2022-11-03T04:21:00.128Z,13.55
2022-11-03T04:23:26.869Z,13.21
2022-11-03T04:25:55.875Z,13.40
2022-11-03T04:28:22.792Z,13.63
2022-11-03T04:30:53.299Z,13.44
2022-11-03T04:33:22.948Z,13.05
2022-11-03T04:35:50.272Z,13.40
2022-11-03T04:38:20.603Z,12.81
2022-11-03T04:40:55.450Z,13.39
2022-11-03T04:43:34.587Z,13.68
2022-11-03T04:46:02.032Z,13.29
2022-11-03T04:48:29.373Z,13.24
2022-11-03T04:50:59.360Z,13.06
2022-11-03T04:53:30.859Z,12.98
2022-11-03T04:56:00.449Z,12.93
2022-11-03T04:58:36.256Z,12.58
2022-11-03T05:01:04.782Z,13.17
2022-11-03T05:03:36.192Z,13.12
2022-11-03T05:06:15.708Z,13.21
2022-11-03T05:08:45.406Z,13.15
2022-11-03T05:11:24.848Z,13.23
2022-11-03T05:13:52.554Z,13.23
2022-11-03T05:16:20.102Z,13.33
2022-11-03T05:18:50.137Z,12.72
2022-11-03T05:21:20.525Z,12.80
2022-11-03T05:23:52.469Z,12.61
2022-11-03T05:26:39.505Z,12.88
2022-11-03T05:29:12.528Z,13.00
2022-11-03T05:31:41.788Z,12.74
2022-11-03T05:34:30.205Z,12.81
2022-11-03T05:37:26.433Z,12.92
2022-11-03T05:39:58.025Z,12.60
2022-11-03T05:42:31.619Z,13.03
2022-11-03T05:44:59.688Z,12.47
2022-11-03T05:47:35.022Z,12.42
2022-11-03T05:50:25.161Z,12.65
2022-11-03T05:53:17.327Z,13.07
2022-11-03T05:55:44.273Z,12.98
2022-11-03T05:58:25.767Z,12.76
2022-11-03T06:00:53.803Z,12.55
2022-11-03T06:03:24.843Z,12.21
2022-11-03T06:05:53.537Z,12.39
2022-11-03T06:08:25.669Z,12.52
2022-11-03T06:10:56.491Z,12.65
2022-11-03T06:13:43.514Z,12.63
2022-11-03T06:16:41.704Z,12.51
2022-11-03T06:19:27.369Z,12.64
2022-11-03T06:21:58.094Z,12.58
2022-11-03T06:24:30.251Z,12.83
2022-11-03T06:26:58.456Z,12.99
2022-11-03T06:29:25.476Z,12.54
2022-11-03T06:31:56.026Z,12.59
2022-11-03T06:34:31.656Z,12.28
2022-11-03T06:37:00.102Z,12.49
2022-11-03T06:39:26.976Z,12.61
2022-11-03T06:41:54.004Z,12.85
2022-11-03T06:44:30.713Z,12.91
2022-11-03T06:47:01.817Z,12.79
2022-11-03T06:49:32.429Z,12.77
2022-11-03T06:52:06.187Z,12.41
2022-11-03T06:54:32.979Z,12.59
2022-11-03T06:56:59.955Z,12.81
2022-11-03T06:59:26.674Z,12.67
2022-11-03T07:01:55.709Z,12.60
2022-11-03T07:04:28.567Z,12.80
2022-11-03T07:07:00.920Z,12.89
2022-11-03T07:09:27.993Z,12.61
2022-11-03T07:12:00.707Z,12.72
2022-11-03T07:14:29.767Z,12.85
2022-11-03T07:16:59.278Z,12.97
2022-11-03T07:19:39.153Z,13.01
2022-11-03T07:22:15.972Z,12.70
2022-11-03T07:24:45.863Z,13.25
2022-11-03T07:27:29.884Z,13.18
2022-11-03T07:30:18.292Z,13.65
2022-11-03T07:32:45.111Z,13.33
2022-11-03T07:35:17.802Z,13.33
2022-11-03T07:37:52.682Z,13.44
2022-11-03T07:40:23.617Z,13.57
2022-11-03T07:42:51.398Z,13.79
2022-11-03T07:45:35.826Z,13.76
2022-11-03T07:48:19.828Z,13.42
2022-11-03T07:50:51.754Z,13.81
2022-11-03T07:53:41.705Z,13.25
2022-11-03T07:56:22.364Z,13.36
2022-11-03T07:59:02.007Z,13.66
2022-11-03T08:01:45.182Z,13.60
2022-11-03T08:04:34.346Z,13.24
2022-11-03T08:07:01.324Z,13.42
2022-11-03T08:09:28.351Z,13.89
2022-11-03T08:11:55.141Z,13.80
2022-11-03T08:14:21.913Z,14.04
2022-11-03T08:16:48.745Z,14.02
2022-11-03T08:19:15.526Z,14.21
2022-11-03T08:21:42.265Z,14.07
2022-11-03T08:24:09.033Z,14.32
2022-11-03T08:26:35.901Z,14.50
2022-11-03T08:29:03.140Z,14.50
2022-11-03T08:31:30.036Z,14.80
2022-11-03T08:33:56.913Z,14.68
2022-11-03T08:36:23.702Z,14.83
2022-11-03T08:38:50.860Z,14.68
2022-11-03T08:41:17.682Z,14.51
2022-11-03T08:43:44.727Z,14.74
2022-11-03T08:46:17.614Z,14.63
2022-11-03T08:48:45.908Z,14.52
2022-11-03T08:51:14.197Z,14.41
2022-11-03T08:53:42.749Z,15.28
2022-11-03T08:56:12.736Z,14.98
2022-11-03T08:58:43.623Z,14.99
2022-11-03T09:01:10.885Z,15.00
2022-11-03T09:03:37.858Z,14.83
2022-11-03T09:06:05.015Z,15.28
2022-11-03T09:11:18.651Z,15.09
2022-11-03T09:13:45.478Z,15.29
2022-11-03T09:16:12.356Z,15.37
2022-11-03T09:18:39.271Z,15.43
2022-11-03T09:21:06.459Z,15.50
2022-11-03T09:23:33.304Z,15.61
2022-11-03T09:26:00.278Z,15.18
2022-11-03T09:28:27.193Z,15.44
2022-11-03T09:30:54.839Z,15.12
2022-11-03T09:33:21.575Z,15.22
2022-11-03T09:35:48.379Z,15.54
2022-11-03T09:38:15.251Z,15.57
2022-11-03T09:40:42.101Z,15.22
2022-11-03T09:43:09.493Z,15.47
2022-11-03T09:45:37.979Z,15.52
2022-11-03T09:48:06.069Z,15.30
2022-11-03T09:50:33.150Z,15.99
2022-11-03T09:52:59.938Z,15.77
2022-11-03T09:55:27.738Z,15.88
2022-11-03T09:58:00.739Z,15.85
2022-11-03T10:00:27.538Z,16.37
2022-11-03T10:02:54.973Z,16.37
2022-11-03T10:05:27.684Z,16.13
2022-11-03T10:07:59.683Z,16.38
2022-11-03T10:10:27.086Z,16.24
2022-11-03T10:12:54.166Z,16.57
2022-11-03T10:15:23.489Z,16.38
2022-11-03T10:17:51.274Z,16.59
2022-11-03T10:20:21.071Z,16.84
2022-11-03T10:22:52.586Z,16.67
2022-11-03T10:25:29.648Z,16.74
2022-11-03T10:28:16.826Z,16.59
2022-11-03T10:31:16.036Z,17.22
2022-11-03T10:33:56.208Z,17.24
2022-11-03T10:36:26.584Z,16.95
2022-11-03T10:38:54.125Z,17.52
2022-11-03T10:41:26.881Z,17.05
2022-11-03T10:44:12.739Z,17.23
2022-11-03T10:46:56.090Z,17.34
2022-11-03T10:49:24.818Z,17.15
2022-11-03T10:51:53.876Z,16.74
2022-11-03T10:54:24.038Z,16.48
2022-11-03T10:56:52.586Z,17.01
2022-11-03T10:59:31.916Z,16.81
2022-11-03T11:02:00.555Z,17.19
2022-11-03T11:04:27.684Z,17.45
2022-11-03T11:06:54.824Z,16.95
2022-11-03T11:09:25.757Z,16.94
2022-11-03T11:12:06.882Z,17.04
2022-11-03T11:14:39.553Z,17.24
2022-11-03T11:17:46.049Z,17.53
2022-11-03T11:20:21.461Z,18.06
2022-11-03T11:22:49.863Z,17.65
2022-11-03T11:25:18.808Z,18.08
2022-11-03T11:27:45.502Z,17.61
2022-11-03T11:30:18.524Z,17.45
2022-11-03T11:32:45.273Z,17.66
2022-11-03T11:35:38.159Z,17.81
2022-11-03T11:38:42.455Z,18.49
2022-11-03T11:41:09.903Z,18.19
2022-11-03T11:43:36.854Z,18.45
2022-11-03T11:46:22.355Z,18.49
2022-11-03T11:49:04.515Z,18.89
2022-11-03T11:51:35.589Z,18.70
2022-11-03T11:54:17.496Z,18.46
2022-11-03T11:56:47.298Z,18.41
2022-11-03T11:59:26.013Z,17.82
2022-11-03T12:01:57.277Z,18.27
2022-11-03T12:04:31.680Z,18.47
2022-11-03T12:06:58.896Z,17.81
2022-11-03T12:09:27.751Z,17.78
2022-11-03T12:11:59.248Z,17.76
2022-11-03T12:14:38.577Z,17.79
2022-11-03T12:17:17.671Z,17.82
2022-11-03T12:19:51.588Z,17.59
2022-11-03T12:22:24.586Z,17.43
2022-11-03T12:24:59.128Z,17.77
2022-11-03T12:27:25.873Z,17.83
2022-11-03T12:30:00.185Z,17.66
2022-11-03T12:32:33.869Z,17.97
2022-11-03T12:35:05.758Z,17.99
2022-11-03T12:37:32.940Z,18.11
2022-11-03T12:40:00.057Z,17.69
2022-11-03T12:42:26.879Z,17.58
2022-11-03T12:44:53.713Z,17.57
2022-11-03T12:47:21.106Z,17.88
2022-11-03T12:49:48.536Z,17.70
2022-11-03T12:52:15.745Z,18.01
2022-11-03T12:54:42.800Z,17.42
2022-11-03T12:57:09.595Z,17.46
2022-11-03T12:59:36.587Z,17.58
2022-11-03T13:02:03.798Z,17.94
2022-11-03T13:04:30.714Z,17.92
2022-11-03T13:06:57.497Z,16.92
2022-11-03T13:09:24.498Z,16.56
2022-11-03T13:12:10.017Z,16.64
2022-11-03T13:14:36.823Z,17.06
2022-11-03T13:17:03.949Z,16.77
2022-11-03T13:19:30.924Z,17.23
2022-11-03T13:21:57.735Z,17.11
2022-11-03T13:24:24.574Z,17.69
2022-11-03T13:26:51.553Z,16.64
2022-11-03T13:29:18.489Z,16.69
2022-11-03T13:31:45.332Z,16.67
2022-11-03T13:34:12.341Z,17.08
2022-11-03T13:36:39.746Z,17.08
2022-11-03T13:39:06.515Z,17.09
2022-11-03T13:41:33.299Z,17.05
2022-11-03T13:44:00.106Z,17.01
2022-11-03T13:46:26.954Z,16.85
2022-11-03T13:49:51.023Z,16.28
2022-11-03T13:51:40.874Z,16.85
2022-11-03T13:59:41.836Z,16.42
2022-11-03T14:04:57.044Z,16.65
2022-11-03T14:07:23.938Z,16.71
2022-11-03T14:09:50.793Z,16.98
2022-11-03T14:12:36.831Z,16.71
2022-11-03T14:15:12.326Z,16.87
2022-11-03T14:17:40.435Z,17.12
2022-11-03T14:20:09.808Z,17.28
2022-11-03T14:22:36.923Z,17.09
2022-11-03T14:25:04.080Z,16.90
2022-11-03T14:27:31.048Z,17.21
2022-11-03T14:29:57.871Z,16.83
2022-11-03T14:32:24.674Z,17.42
2022-11-03T14:34:51.673Z,16.95
2022-11-03T14:37:18.665Z,17.15
2022-11-03T14:39:45.528Z,17.37
2022-11-03T14:42:17.141Z,17.50
2022-11-03T14:44:46.355Z,17.35
2022-11-03T14:47:18.476Z,17.58
2022-11-03T14:49:46.478Z,17.43
2022-11-03T14:52:14.570Z,17.16
2022-11-03T14:54:41.974Z,17.16
2022-11-03T14:57:09.834Z,16.98
2022-11-03T14:59:36.728Z,17.45
2022-11-03T15:02:05.039Z,17.26
2022-11-03T15:04:32.057Z,17.09
2022-11-03T15:06:59.008Z,17.30
2022-11-03T15:09:25.918Z,17.06
2022-11-03T15:11:53.090Z,17.31
2022-11-03T15:14:20.039Z,17.15
2022-11-03T15:16:46.894Z,16.70
2022-11-03T15:19:14.046Z,17.01
2022-11-03T15:21:41.453Z,17.38
2022-11-03T15:26:55.355Z,17.15
2022-11-03T15:29:24.043Z,16.98
2022-11-03T15:31:51.353Z,16.80
2022-11-03T15:34:18.369Z,16.48
2022-11-03T15:36:45.341Z,16.65
2022-11-03T15:39:13.284Z,16.65
2022-11-03T15:41:40.350Z,17.03
2022-11-03T15:44:07.371Z,16.64
2022-11-03T15:46:35.784Z,16.53
2022-11-03T15:49:03.456Z,16.77
2022-11-03T15:51:30.314Z,16.62
2022-11-03T15:53:59.164Z,16.46
2022-11-03T15:56:27.220Z,16.73
2022-11-03T15:58:54.180Z,16.75
2022-11-03T16:01:21.339Z,16.30
2022-11-03T16:03:48.666Z,16.47
2022-11-03T16:06:15.693Z,16.14
2022-11-03T16:08:42.918Z,16.62
2022-11-03T16:11:09.724Z,16.72
2022-11-03T16:13:36.531Z,16.40
2022-11-03T16:16:03.531Z,16.31
2022-11-03T16:18:30.453Z,16.09
2022-11-03T16:20:57.282Z,15.65
2022-11-03T16:23:24.760Z,15.82
2022-11-03T16:25:51.574Z,15.85
2022-11-03T16:28:18.355Z,15.89
2022-11-03T16:30:48.517Z,15.41
2022-11-03T16:33:19.761Z,15.89
2022-11-03T16:35:46.513Z,16.39
2022-11-03T16:38:15.238Z,15.83
2022-11-03T16:40:42.805Z,15.87
2022-11-03T16:43:09.941Z,15.65
2022-11-03T16:45:38.098Z,15.79
2022-11-03T16:48:06.477Z,15.63
2022-11-03T16:50:33.693Z,16.17
2022-11-03T16:53:00.488Z,15.62
2022-11-03T16:55:27.314Z,15.83
2022-11-03T16:57:54.091Z,15.73
2022-11-03T17:00:21.196Z,15.62
2022-11-03T17:02:48.115Z,15.67
2022-11-03T17:05:17.539Z,15.85
2022-11-03T17:07:50.037Z,15.57
2022-11-03T17:10:20.116Z,15.53
2022-11-03T17:12:47.107Z,15.34
2022-11-03T17:15:13.933Z,15.57
2022-11-03T17:17:41.517Z,15.66
2022-11-03T17:20:09.248Z,15.37
2022-11-03T17:22:36.528Z,15.42
2022-11-03T17:25:04.962Z,15.64
2022-11-03T17:27:38.352Z,15.59
2022-11-03T17:30:08.925Z,15.46
2022-11-03T17:32:43.671Z,15.42
2022-11-03T17:35:25.426Z,15.45
2022-11-03T17:37:53.039Z,15.65
2022-11-03T17:40:25.375Z,15.11
2022-11-03T17:42:52.839Z,15.52
2022-11-03T17:45:24.107Z,15.26
2022-11-03T17:47:51.170Z,15.39
2022-11-03T17:50:20.472Z,15.82
2022-11-03T17:52:49.669Z,16.03
2022-11-03T17:55:26.298Z,15.94
2022-11-03T17:57:54.820Z,15.50
2022-11-03T18:00:22.538Z,15.79
2022-11-03T18:02:51.352Z,15.24
2022-11-03T18:05:32.411Z,15.15
2022-11-03T18:08:01.883Z,15.04
2022-11-03T18:10:32.471Z,14.85
2022-11-03T18:13:17.947Z,14.73
2022-11-03T18:15:51.317Z,14.70
2022-11-03T18:18:26.447Z,15.02
2022-11-03T18:20:54.370Z,15.42
2022-11-03T18:23:24.643Z,14.89
2022-11-03T18:25:52.355Z,14.90
2022-11-03T18:28:20.051Z,15.20
2022-11-03T18:30:50.047Z,14.87
2022-11-03T18:33:29.243Z,15.46
2022-11-03T18:35:57.241Z,14.39
2022-11-03T18:38:25.951Z,15.11
2022-11-03T18:40:52.852Z,15.15
2022-11-03T18:43:23.321Z,15.24
2022-11-03T18:45:51.147Z,15.35
2022-11-03T18:48:21.276Z,14.85
2022-11-03T18:50:51.141Z,15.04
2022-11-03T18:53:21.799Z,14.95
2022-11-03T18:55:48.994Z,15.49
2022-11-03T18:58:24.526Z,15.33
2022-11-03T19:00:55.169Z,15.09
2022-11-03T19:03:23.585Z,15.21
2022-11-03T19:05:52.788Z,15.09
2022-11-03T19:08:31.774Z,15.17
2022-11-03T19:11:03.786Z,14.78
2022-11-03T19:13:36.546Z,14.68
2022-11-03T19:16:27.941Z,14.94
2022-11-03T19:18:54.777Z,15.04
2022-11-03T19:21:23.795Z,15.16
2022-11-03T19:23:57.102Z,14.68
2022-11-03T19:26:35.761Z,14.85
2022-11-03T19:29:17.117Z,14.86
2022-11-03T19:31:46.447Z,14.41
2022-11-03T19:34:17.832Z,14.95
2022-11-03T19:36:46.334Z,14.97
2022-11-03T19:39:31.506Z,14.84
2022-11-03T19:42:20.685Z,14.95
2022-11-03T19:44:49.463Z,14.75
2022-11-03T19:47:17.596Z,14.97
2022-11-03T19:49:46.017Z,15.24
2022-11-03T19:52:15.572Z,15.09
2022-11-03T19:54:45.956Z,14.84
2022-11-03T19:57:14.111Z,14.42
2022-11-03T19:59:42.027Z,14.99
2022-11-03T20:02:09.618Z,14.67
2022-11-03T20:04:36.959Z,13.83
2022-11-03T20:07:04.388Z,14.37
2022-11-03T20:09:31.634Z,14.31
2022-11-03T20:12:03.424Z,14.10
2022-11-03T20:14:30.251Z,13.86
2022-11-03T20:17:10.460Z,13.61
2022-11-03T20:19:37.306Z,13.85
2022-11-03T20:22:05.578Z,13.98
2022-11-03T20:24:32.712Z,14.20
2022-11-03T20:27:00.989Z,14.00
2022-11-03T20:29:33.722Z,14.32
2022-11-03T20:32:01.581Z,14.13
2022-11-03T20:34:28.843Z,14.55
2022-11-03T20:36:55.703Z,14.24
2022-11-03T20:39:24.149Z,14.54
2022-11-03T20:41:52.259Z,14.43
2022-11-03T20:44:19.175Z,14.66
2022-11-03T20:46:45.994Z,14.35
2022-11-03T20:49:12.786Z,14.26
2022-11-03T20:51:43.470Z,14.22
2022-11-03T20:54:19.540Z,14.35
2022-11-03T20:56:46.900Z,14.65
2022-11-03T20:59:17.697Z,14.49
2022-11-03T21:01:45.340Z,14.50
2022-11-03T21:04:17.033Z,14.62
2022-11-03T21:06:44.811Z,14.16
2022-11-03T21:09:17.802Z,14.22
2022-11-03T21:11:45.969Z,14.58
2022-11-03T21:14:18.804Z,14.25
2022-11-03T21:17:04.470Z,14.42
2022-11-03T21:19:51.995Z,14.55
2022-11-03T21:22:54.148Z,14.40
2022-11-03T21:25:23.201Z,14.06
2022-11-03T21:27:50.497Z,15.01
2022-11-03T21:30:18.210Z,14.23
2022-11-03T21:32:45.475Z,14.42
2022-11-03T21:35:18.211Z,14.38
2022-11-03T21:37:48.049Z,14.22
2022-11-03T21:40:14.977Z,14.69
2022-11-03T21:43:00.387Z,14.47
2022-11-03T21:45:27.465Z,14.30
2022-11-03T21:48:14.368Z,14.93
2022-11-03T21:50:42.748Z,14.51
2022-11-03T21:53:10.759Z,14.35
2022-11-03T21:55:38.152Z,14.40
2022-11-03T21:58:05.653Z,14.27
2022-11-03T22:00:32.933Z,14.70
2022-11-03T22:03:00.558Z,14.47
2022-11-03T22:05:27.648Z,14.70
2022-11-03T22:07:54.557Z,14.54
2022-11-03T22:10:21.780Z,14.68
2022-11-03T22:12:48.628Z,14.50
2022-11-03T22:15:33.961Z,14.44
2022-11-03T22:18:06.240Z,15.25
2022-11-03T22:20:52.183Z,15.01
2022-11-03T22:23:37.486Z,15.03
2022-11-03T22:26:22.605Z,15.18
2022-11-03T22:29:12.135Z,15.24
2022-11-03T22:31:41.740Z,14.85
2022-11-03T22:34:27.442Z,14.71
2022-11-03T22:36:54.239Z,14.53
2022-11-03T22:39:39.451Z,14.89
2022-11-03T22:42:24.709Z,14.76
2022-11-03T22:45:09.999Z,14.55
2022-11-03T22:47:37.022Z,14.57
2022-11-03T22:50:03.957Z,14.29
2022-11-03T22:52:30.735Z,14.23
2022-11-03T22:54:57.478Z,14.14
2022-11-03T22:57:24.263Z,14.50
2022-11-03T22:59:51.032Z,15.01
2022-11-03T23:02:17.841Z,14.82
2022-11-03T23:04:46.465Z,14.71
2022-11-03T23:07:13.322Z,14.69
2022-11-03T23:09:40.094Z,15.05
2022-11-03T23:12:06.938Z,15.18
2022-11-03T23:14:53.680Z,14.60
2022-11-03T23:17:20.463Z,14.24
2022-11-03T23:20:22.708Z,14.15
2022-11-03T23:22:49.507Z,14.61
2022-11-03T23:25:16.436Z,14.47
2022-11-03T23:27:43.205Z,14.63
2022-11-03T23:30:10.751Z,14.62
2022-11-03T23:32:37.521Z,14.78
2022-11-03T23:35:04.780Z,15.01
2022-11-03T23:37:31.540Z,14.80
2022-11-03T23:39:58.306Z,14.71
2022-11-03T23:42:25.087Z,14.59
2022-11-03T23:45:10.428Z,14.60
2022-11-03T23:48:00.274Z,14.54
2022-11-03T23:50:27.228Z,13.75
2022-11-03T23:52:54.002Z,13.87
2022-11-03T23:55:20.799Z,14.59
2022-11-03T23:58:06.345Z,14.48
